sensor_id;sensor_type;location;lat;lon;timestamp;P1;durP1;ratioP1;P2;durP2;ratioP2
26540;SDS011;14206;50.202;10.948;2023-11-21T00:00:35;0.88;;;0.50;;
26540;SDS011;14206;50.202;10.948;2023-11-21T00:03:02;0.50;;;0.50;;
26540;SDS011;14206;50.202;10.948;2023-11-21T00:05:30;4.75;;;0.80;;
26540;SDS011;14206;50.202;10.948;2023-11-21T00:07:57;0.50;;;0.50;;
26540;SDS011;14206;50.202;10.948;2023-11-21T00:10:24;0.50;;;0.50;;
26540;SDS011;14206;50.202;10.948;2023-11-21T00:12:51;1.15;;;0.70;;
26540;SDS011;14206;50.202;10.948;2023-11-21T00:15:21;1.27;;;0.60;;
26540;SDS011;14206;50.202;10.948;2023-11-21T00:17:48;0.52;;;0.52;;
26540;SDS011;14206;50.202;10.948;2023-11-21T00:20:16;0.60;;;0.60;;
26540;SDS011;14206;50.202;10.948;2023-11-21T00:22:42;1.23;;;0.70;;
26540;SDS011;14206;50.202;10.948;2023-11-21T00:25:10;1.20;;;0.80;;
26540;SDS011;14206;50.202;10.948;2023-11-21T00:27:37;0.85;;;0.70;;
26540;SDS011;14206;50.202;10.948;2023-11-21T00:30:04;1.25;;;0.73;;
26540;SDS011;14206;50.202;10.948;2023-11-21T00:32:32;0.68;;;0.68;;
26540;SDS011;14206;50.202;10.948;2023-11-21T00:35:00;0.70;;;0.70;;
26540;SDS011;14206;50.202;10.948;2023-11-21T00:37:27;1.48;;;0.60;;
26540;SDS011;14206;50.202;10.948;2023-11-21T00:39:54;1.38;;;0.60;;
26540;SDS011;14206;50.202;10.948;2023-11-21T00:42:22;0.75;;;0.63;;
26540;SDS011;14206;50.202;10.948;2023-11-21T00:44:50;0.95;;;0.70;;
26540;SDS011;14206;50.202;10.948;2023-11-21T00:47:16;0.60;;;0.60;;
26540;SDS011;14206;50.202;10.948;2023-11-21T00:49:47;1.05;;;0.60;;
26540;SDS011;14206;50.202;10.948;2023-11-21T00:52:15;2.22;;;0.60;;
26540;SDS011;14206;50.202;10.948;2023-11-21T00:54:42;0.70;;;0.65;;
26540;SDS011;14206;50.202;10.948;2023-11-21T00:57:09;1.05;;;0.80;;
26540;SDS011;14206;50.202;10.948;2023-11-21T00:59:38;0.90;;;0.70;;
26540;SDS011;14206;50.202;10.948;2023-11-21T01:02:06;1.20;;;0.63;;
26540;SDS011;14206;50.202;10.948;2023-11-21T01:04:36;1.42;;;0.70;;
26540;SDS011;14206;50.202;10.948;2023-11-21T01:07:04;0.63;;;0.60;;
26540;SDS011;14206;50.202;10.948;2023-11-21T01:09:31;0.70;;;0.60;;
26540;SDS011;14206;50.202;10.948;2023-11-21T01:11:59;0.80;;;0.80;;
26540;SDS011;14206;50.202;10.948;2023-11-21T01:14:26;1.27;;;0.95;;
26540;SDS011;14206;50.202;10.948;2023-11-21T01:16:54;1.23;;;1.00;;
26540;SDS011;14206;50.202;10.948;2023-11-21T01:19:21;1.67;;;1.00;;
26540;SDS011;14206;50.202;10.948;2023-11-21T01:21:49;1.10;;;0.88;;
26540;SDS011;14206;50.202;10.948;2023-11-21T01:24:16;1.23;;;0.80;;
26540;SDS011;14206;50.202;10.948;2023-11-21T01:26:43;0.90;;;0.90;;
26540;SDS011;14206;50.202;10.948;2023-11-21T01:29:11;0.90;;;0.90;;
26540;SDS011;14206;50.202;10.948;2023-11-21T01:31:39;0.75;;;0.75;;
26540;SDS011;14206;50.202;10.948;2023-11-21T01:34:06;0.80;;;0.80;;
26540;SDS011;14206;50.202;10.948;2023-11-21T01:36:33;1.00;;;0.90;;
26540;SDS011;14206;50.202;10.948;2023-11-21T01:39:00;1.15;;;0.80;;
26540;SDS011;14206;50.202;10.948;2023-11-21T01:41:28;2.38;;;1.00;;
26540;SDS011;14206;50.202;10.948;2023-11-21T01:43:55;1.58;;;0.82;;
26540;SDS011;14206;50.202;10.948;2023-11-21T01:46:25;1.00;;;0.75;;
26540;SDS011;14206;50.202;10.948;2023-11-21T01:48:52;2.03;;;0.93;;
26540;SDS011;14206;50.202;10.948;2023-11-21T01:51:20;1.75;;;0.98;;
26540;SDS011;14206;50.202;10.948;2023-11-21T01:53:47;1.17;;;0.80;;
26540;SDS011;14206;50.202;10.948;2023-11-21T01:56:15;1.65;;;1.00;;
26540;SDS011;14206;50.202;10.948;2023-11-21T01:58:43;1.90;;;1.20;;
26540;SDS011;14206;50.202;10.948;2023-11-21T02:01:10;1.02;;;0.90;;
26540;SDS011;14206;50.202;10.948;2023-11-21T02:03:37;1.45;;;1.20;;
26540;SDS011;14206;50.202;10.948;2023-11-21T02:06:04;1.10;;;0.77;;
26540;SDS011;14206;50.202;10.948;2023-11-21T02:08:31;2.80;;;1.27;;
26540;SDS011;14206;50.202;10.948;2023-11-21T02:10:59;1.00;;;0.88;;
26540;SDS011;14206;50.202;10.948;2023-11-21T02:13:26;2.05;;;0.90;;
26540;SDS011;14206;50.202;10.948;2023-11-21T02:15:53;2.38;;;1.40;;
26540;SDS011;14206;50.202;10.948;2023-11-21T02:18:20;1.83;;;1.02;;
26540;SDS011;14206;50.202;10.948;2023-11-21T02:20:48;1.25;;;1.13;;
26540;SDS011;14206;50.202;10.948;2023-11-21T02:23:15;1.85;;;1.25;;
26540;SDS011;14206;50.202;10.948;2023-11-21T02:25:42;2.17;;;1.27;;
26540;SDS011;14206;50.202;10.948;2023-11-21T02:28:09;2.17;;;1.25;;
26540;SDS011;14206;50.202;10.948;2023-11-21T02:30:39;2.28;;;1.42;;
26540;SDS011;14206;50.202;10.948;2023-11-21T02:33:06;1.45;;;1.20;;
26540;SDS011;14206;50.202;10.948;2023-11-21T02:35:33;2.13;;;1.60;;
26540;SDS011;14206;50.202;10.948;2023-11-21T02:38:01;1.65;;;1.30;;
26540;SDS011;14206;50.202;10.948;2023-11-21T02:40:29;1.60;;;1.08;;
26540;SDS011;14206;50.202;10.948;2023-11-21T02:42:57;2.03;;;1.20;;
26540;SDS011;14206;50.202;10.948;2023-11-21T02:45:26;2.50;;;1.50;;
26540;SDS011;14206;50.202;10.948;2023-11-21T02:47:53;3.15;;;1.15;;
26540;SDS011;14206;50.202;10.948;2023-11-21T02:50:24;1.40;;;1.02;;
26540;SDS011;14206;50.202;10.948;2023-11-21T02:52:51;1.83;;;1.30;;
26540;SDS011;14206;50.202;10.948;2023-11-21T02:55:19;1.98;;;1.30;;
26540;SDS011;14206;50.202;10.948;2023-11-21T02:57:46;1.60;;;1.30;;
26540;SDS011;14206;50.202;10.948;2023-11-21T03:00:13;2.50;;;1.33;;
26540;SDS011;14206;50.202;10.948;2023-11-21T03:02:46;2.53;;;1.50;;
26540;SDS011;14206;50.202;10.948;2023-11-21T03:05:14;2.75;;;1.35;;
26540;SDS011;14206;50.202;10.948;2023-11-21T03:07:41;2.05;;;1.35;;
26540;SDS011;14206;50.202;10.948;2023-11-21T03:10:08;1.98;;;1.40;;
26540;SDS011;14206;50.202;10.948;2023-11-21T03:12:37;1.35;;;1.20;;
26540;SDS011;14206;50.202;10.948;2023-11-21T03:15:05;1.30;;;1.20;;
26540;SDS011;14206;50.202;10.948;2023-11-21T03:17:33;1.35;;;1.23;;
26540;SDS011;14206;50.202;10.948;2023-11-21T03:20:03;1.13;;;1.02;;
26540;SDS011;14206;50.202;10.948;2023-11-21T03:22:31;1.55;;;1.00;;
26540;SDS011;14206;50.202;10.948;2023-11-21T03:24:59;2.28;;;1.30;;
26540;SDS011;14206;50.202;10.948;2023-11-21T03:27:26;3.15;;;1.55;;
26540;SDS011;14206;50.202;10.948;2023-11-21T03:29:53;1.85;;;1.30;;
26540;SDS011;14206;50.202;10.948;2023-11-21T03:32:21;1.90;;;1.38;;
26540;SDS011;14206;50.202;10.948;2023-11-21T03:34:55;1.38;;;1.10;;
26540;SDS011;14206;50.202;10.948;2023-11-21T03:37:24;1.70;;;1.50;;
26540;SDS011;14206;50.202;10.948;2023-11-21T03:39:54;3.42;;;1.80;;
26540;SDS011;14206;50.202;10.948;2023-11-21T03:42:22;1.80;;;1.40;;
26540;SDS011;14206;50.202;10.948;2023-11-21T03:44:50;3.88;;;1.60;;
26540;SDS011;14206;50.202;10.948;2023-11-21T03:47:17;1.83;;;1.20;;
26540;SDS011;14206;50.202;10.948;2023-11-21T03:49:45;2.78;;;1.33;;
26540;SDS011;14206;50.202;10.948;2023-11-21T03:52:15;2.47;;;1.35;;
26540;SDS011;14206;50.202;10.948;2023-11-21T03:54:43;2.67;;;1.30;;
26540;SDS011;14206;50.202;10.948;2023-11-21T03:57:11;1.42;;;1.13;;
26540;SDS011;14206;50.202;10.948;2023-11-21T03:59:41;1.40;;;1.20;;
26540;SDS011;14206;50.202;10.948;2023-11-21T04:02:09;2.33;;;1.45;;
26540;SDS011;14206;50.202;10.948;2023-11-21T04:04:36;1.55;;;1.30;;
26540;SDS011;14206;50.202;10.948;2023-11-21T04:07:03;1.80;;;1.23;;
26540;SDS011;14206;50.202;10.948;2023-11-21T04:09:30;3.88;;;1.30;;
26540;SDS011;14206;50.202;10.948;2023-11-21T04:11:58;1.95;;;1.38;;
26540;SDS011;14206;50.202;10.948;2023-11-21T04:14:25;0.90;;;0.90;;
26540;SDS011;14206;50.202;10.948;2023-11-21T04:16:52;1.20;;;1.10;;
26540;SDS011;14206;50.202;10.948;2023-11-21T04:19:20;2.88;;;1.17;;
26540;SDS011;14206;50.202;10.948;2023-11-21T04:21:47;1.70;;;1.10;;
26540;SDS011;14206;50.202;10.948;2023-11-21T04:24:14;1.33;;;1.10;;
26540;SDS011;14206;50.202;10.948;2023-11-21T04:26:40;1.30;;;1.20;;
26540;SDS011;14206;50.202;10.948;2023-11-21T04:29:08;1.48;;;1.30;;
26540;SDS011;14206;50.202;10.948;2023-11-21T04:31:34;3.90;;;1.30;;
26540;SDS011;14206;50.202;10.948;2023-11-21T04:34:01;1.35;;;1.25;;
26540;SDS011;14206;50.202;10.948;2023-11-21T04:36:31;1.67;;;1.17;;
26540;SDS011;14206;50.202;10.948;2023-11-21T04:38:58;2.35;;;1.50;;
26540;SDS011;14206;50.202;10.948;2023-11-21T04:41:25;1.70;;;1.38;;
26540;SDS011;14206;50.202;10.948;2023-11-21T04:43:52;1.67;;;1.58;;
26540;SDS011;14206;50.202;10.948;2023-11-21T04:46:19;2.08;;;1.42;;
26540;SDS011;14206;50.202;10.948;2023-11-21T04:48:46;1.77;;;1.30;;
26540;SDS011;14206;50.202;10.948;2023-11-21T04:51:13;2.03;;;1.40;;
26540;SDS011;14206;50.202;10.948;2023-11-21T04:53:40;2.42;;;1.40;;
26540;SDS011;14206;50.202;10.948;2023-11-21T04:56:07;2.05;;;1.40;;
26540;SDS011;14206;50.202;10.948;2023-11-21T04:58:34;1.60;;;1.25;;
26540;SDS011;14206;50.202;10.948;2023-11-21T05:01:01;1.48;;;1.38;;
26540;SDS011;14206;50.202;10.948;2023-11-21T05:03:33;1.40;;;1.30;;
26540;SDS011;14206;50.202;10.948;2023-11-21T05:06:01;2.30;;;1.35;;
26540;SDS011;14206;50.202;10.948;2023-11-21T05:08:29;1.90;;;1.20;;
26540;SDS011;14206;50.202;10.948;2023-11-21T05:10:56;2.50;;;1.75;;
26540;SDS011;14206;50.202;10.948;2023-11-21T05:13:23;1.67;;;1.58;;
26540;SDS011;14206;50.202;10.948;2023-11-21T05:15:54;1.98;;;1.50;;
26540;SDS011;14206;50.202;10.948;2023-11-21T05:18:25;2.70;;;1.23;;
26540;SDS011;14206;50.202;10.948;2023-11-21T05:20:53;1.50;;;1.40;;
26540;SDS011;14206;50.202;10.948;2023-11-21T05:23:20;1.30;;;1.20;;
26540;SDS011;14206;50.202;10.948;2023-11-21T05:25:47;3.03;;;1.67;;
26540;SDS011;14206;50.202;10.948;2023-11-21T05:28:14;1.95;;;1.67;;
26540;SDS011;14206;50.202;10.948;2023-11-21T05:30:41;1.50;;;1.40;;
26540;SDS011;14206;50.202;10.948;2023-11-21T05:33:08;1.85;;;1.45;;
26540;SDS011;14206;50.202;10.948;2023-11-21T05:35:35;1.63;;;1.35;;
26540;SDS011;14206;50.202;10.948;2023-11-21T05:38:02;1.85;;;1.30;;
26540;SDS011;14206;50.202;10.948;2023-11-21T05:40:28;1.73;;;1.48;;
26540;SDS011;14206;50.202;10.948;2023-11-21T05:42:56;1.50;;;1.30;;
26540;SDS011;14206;50.202;10.948;2023-11-21T05:45:23;1.85;;;1.50;;
26540;SDS011;14206;50.202;10.948;2023-11-21T05:47:50;2.28;;;1.45;;
26540;SDS011;14206;50.202;10.948;2023-11-21T05:50:17;1.60;;;1.50;;
26540;SDS011;14206;50.202;10.948;2023-11-21T05:52:45;2.25;;;1.70;;
26540;SDS011;14206;50.202;10.948;2023-11-21T05:55:13;1.60;;;1.50;;
26540;SDS011;14206;50.202;10.948;2023-11-21T05:57:41;1.90;;;1.70;;
26540;SDS011;14206;50.202;10.948;2023-11-21T06:00:12;1.60;;;1.48;;
26540;SDS011;14206;50.202;10.948;2023-11-21T06:02:49;2.08;;;1.80;;
26540;SDS011;14206;50.202;10.948;2023-11-21T06:05:17;3.03;;;1.70;;
26540;SDS011;14206;50.202;10.948;2023-11-21T06:07:45;1.65;;;1.55;;
26540;SDS011;14206;50.202;10.948;2023-11-21T06:10:12;1.70;;;1.60;;
26540;SDS011;14206;50.202;10.948;2023-11-21T06:12:41;2.42;;;1.90;;
26540;SDS011;14206;50.202;10.948;2023-11-21T06:15:09;2.08;;;1.90;;
26540;SDS011;14206;50.202;10.948;2023-11-21T06:17:43;2.70;;;2.10;;
26540;SDS011;14206;50.202;10.948;2023-11-21T06:20:11;2.67;;;2.30;;
26540;SDS011;14206;50.202;10.948;2023-11-21T06:22:41;3.05;;;2.40;;
26540;SDS011;14206;50.202;10.948;2023-11-21T06:25:09;2.67;;;2.47;;
26540;SDS011;14206;50.202;10.948;2023-11-21T06:27:40;3.60;;;3.08;;
26540;SDS011;14206;50.202;10.948;2023-11-21T06:30:08;3.55;;;2.80;;
26540;SDS011;14206;50.202;10.948;2023-11-21T06:32:36;2.63;;;2.30;;
26540;SDS011;14206;50.202;10.948;2023-11-21T06:35:04;3.60;;;2.60;;
26540;SDS011;14206;50.202;10.948;2023-11-21T06:37:33;3.05;;;2.17;;
26540;SDS011;14206;50.202;10.948;2023-11-21T06:40:00;2.40;;;2.20;;
26540;SDS011;14206;50.202;10.948;2023-11-21T06:42:27;3.13;;;1.92;;
26540;SDS011;14206;50.202;10.948;2023-11-21T06:44:55;3.03;;;2.20;;
26540;SDS011;14206;50.202;10.948;2023-11-21T06:47:24;3.85;;;2.15;;
26540;SDS011;14206;50.202;10.948;2023-11-21T06:49:52;3.67;;;2.20;;
26540;SDS011;14206;50.202;10.948;2023-11-21T06:52:19;2.40;;;2.03;;
26540;SDS011;14206;50.202;10.948;2023-11-21T06:54:46;2.55;;;2.10;;
26540;SDS011;14206;50.202;10.948;2023-11-21T06:57:15;1.92;;;1.75;;
26540;SDS011;14206;50.202;10.948;2023-11-21T06:59:42;2.35;;;2.10;;
26540;SDS011;14206;50.202;10.948;2023-11-21T07:02:09;2.08;;;1.73;;
26540;SDS011;14206;50.202;10.948;2023-11-21T07:04:36;2.95;;;2.20;;
26540;SDS011;14206;50.202;10.948;2023-11-21T07:07:03;2.30;;;2.10;;
26540;SDS011;14206;50.202;10.948;2023-11-21T07:09:32;2.35;;;2.10;;
26540;SDS011;14206;50.202;10.948;2023-11-21T07:11:59;2.78;;;2.03;;
26540;SDS011;14206;50.202;10.948;2023-11-21T07:14:25;2.20;;;2.00;;
26540;SDS011;14206;50.202;10.948;2023-11-21T07:16:52;2.85;;;1.83;;
26540;SDS011;14206;50.202;10.948;2023-11-21T07:19:20;2.65;;;2.20;;
26540;SDS011;14206;50.202;10.948;2023-11-21T07:21:48;2.88;;;2.40;;
26540;SDS011;14206;50.202;10.948;2023-11-21T07:24:17;2.38;;;2.10;;
26540;SDS011;14206;50.202;10.948;2023-11-21T07:26:44;4.13;;;2.63;;
26540;SDS011;14206;50.202;10.948;2023-11-21T07:29:11;3.10;;;2.80;;
26540;SDS011;14206;50.202;10.948;2023-11-21T07:31:39;2.97;;;2.67;;
26540;SDS011;14206;50.202;10.948;2023-11-21T07:34:08;3.50;;;2.70;;
26540;SDS011;14206;50.202;10.948;2023-11-21T07:36:36;3.28;;;2.90;;
26540;SDS011;14206;50.202;10.948;2023-11-21T07:39:03;3.40;;;2.95;;
26540;SDS011;14206;50.202;10.948;2023-11-21T07:41:30;5.60;;;2.70;;
26540;SDS011;14206;50.202;10.948;2023-11-21T07:43:57;3.15;;;2.58;;
26540;SDS011;14206;50.202;10.948;2023-11-21T07:46:25;3.10;;;2.72;;
26540;SDS011;14206;50.202;10.948;2023-11-21T07:48:53;5.32;;;3.05;;
26540;SDS011;14206;50.202;10.948;2023-11-21T07:51:21;2.90;;;2.65;;
26540;SDS011;14206;50.202;10.948;2023-11-21T07:53:48;2.55;;;2.20;;
26540;SDS011;14206;50.202;10.948;2023-11-21T07:56:16;2.35;;;2.15;;
26540;SDS011;14206;50.202;10.948;2023-11-21T07:58:44;3.08;;;2.78;;
26540;SDS011;14206;50.202;10.948;2023-11-21T08:01:11;3.22;;;2.92;;
26540;SDS011;14206;50.202;10.948;2023-11-21T08:03:38;3.35;;;2.80;;
26540;SDS011;14206;50.202;10.948;2023-11-21T08:06:05;5.68;;;3.00;;
26540;SDS011;14206;50.202;10.948;2023-11-21T08:08:32;3.38;;;3.08;;
26540;SDS011;14206;50.202;10.948;2023-11-21T08:10:59;3.70;;;3.17;;
26540;SDS011;14206;50.202;10.948;2023-11-21T08:13:28;4.15;;;3.05;;
26540;SDS011;14206;50.202;10.948;2023-11-21T08:15:57;4.22;;;3.33;;
26540;SDS011;14206;50.202;10.948;2023-11-21T08:18:29;4.25;;;3.10;;
26540;SDS011;14206;50.202;10.948;2023-11-21T08:20:57;3.90;;;3.17;;
26540;SDS011;14206;50.202;10.948;2023-11-21T08:23:23;5.70;;;3.83;;
26540;SDS011;14206;50.202;10.948;2023-11-21T08:25:52;5.18;;;4.00;;
26540;SDS011;14206;50.202;10.948;2023-11-21T08:28:19;5.10;;;4.10;;
26540;SDS011;14206;50.202;10.948;2023-11-21T08:30:48;5.53;;;3.50;;
26540;SDS011;14206;50.202;10.948;2023-11-21T08:33:15;4.20;;;3.20;;
26540;SDS011;14206;50.202;10.948;2023-11-21T08:35:42;3.20;;;2.80;;
26540;SDS011;14206;50.202;10.948;2023-11-21T08:38:09;4.60;;;3.25;;
26540;SDS011;14206;50.202;10.948;2023-11-21T08:40:37;4.35;;;3.00;;
26540;SDS011;14206;50.202;10.948;2023-11-21T08:43:04;3.22;;;2.92;;
26540;SDS011;14206;50.202;10.948;2023-11-21T08:45:31;3.53;;;2.60;;
26540;SDS011;14206;50.202;10.948;2023-11-21T08:48:01;3.75;;;3.08;;
26540;SDS011;14206;50.202;10.948;2023-11-21T08:50:28;4.93;;;3.90;;
26540;SDS011;14206;50.202;10.948;2023-11-21T08:52:55;5.13;;;4.32;;
26540;SDS011;14206;50.202;10.948;2023-11-21T08:55:22;3.72;;;3.30;;
26540;SDS011;14206;50.202;10.948;2023-11-21T08:57:49;4.43;;;3.85;;
26540;SDS011;14206;50.202;10.948;2023-11-21T09:00:19;5.13;;;3.58;;
26540;SDS011;14206;50.202;10.948;2023-11-21T09:02:46;3.63;;;3.25;;
26540;SDS011;14206;50.202;10.948;2023-11-21T09:05:14;3.47;;;2.92;;
26540;SDS011;14206;50.202;10.948;2023-11-21T09:07:41;4.68;;;3.33;;
26540;SDS011;14206;50.202;10.948;2023-11-21T09:10:09;4.20;;;3.47;;
26540;SDS011;14206;50.202;10.948;2023-11-21T09:12:36;4.78;;;3.47;;
26540;SDS011;14206;50.202;10.948;2023-11-21T09:15:04;4.90;;;3.50;;
26540;SDS011;14206;50.202;10.948;2023-11-21T09:17:32;3.38;;;3.08;;
26540;SDS011;14206;50.202;10.948;2023-11-21T09:20:04;3.95;;;3.50;;
26540;SDS011;14206;50.202;10.948;2023-11-21T09:22:32;6.45;;;3.70;;
26540;SDS011;14206;50.202;10.948;2023-11-21T09:24:59;3.30;;;2.88;;
26540;SDS011;14206;50.202;10.948;2023-11-21T09:27:26;3.90;;;3.20;;
26540;SDS011;14206;50.202;10.948;2023-11-21T09:29:53;3.50;;;3.03;;
26540;SDS011;14206;50.202;10.948;2023-11-21T09:32:20;4.97;;;3.40;;
26540;SDS011;14206;50.202;10.948;2023-11-21T09:34:51;4.30;;;3.10;;
26540;SDS011;14206;50.202;10.948;2023-11-21T09:37:18;3.55;;;3.10;;
26540;SDS011;14206;50.202;10.948;2023-11-21T09:39:45;4.13;;;3.05;;
26540;SDS011;14206;50.202;10.948;2023-11-21T09:42:20;3.80;;;3.20;;
26540;SDS011;14206;50.202;10.948;2023-11-21T09:44:53;3.45;;;3.13;;
26540;SDS011;14206;50.202;10.948;2023-11-21T09:47:27;4.72;;;3.65;;
26540;SDS011;14206;50.202;10.948;2023-11-21T09:49:54;3.53;;;3.00;;
26540;SDS011;14206;50.202;10.948;2023-11-21T09:52:26;3.55;;;3.00;;
26540;SDS011;14206;50.202;10.948;2023-11-21T09:54:54;3.33;;;3.03;;
26540;SDS011;14206;50.202;10.948;2023-11-21T09:57:25;3.28;;;2.80;;
26540;SDS011;14206;50.202;10.948;2023-11-21T09:59:52;3.90;;;3.50;;
26540;SDS011;14206;50.202;10.948;2023-11-21T10:02:26;3.30;;;3.00;;
26540;SDS011;14206;50.202;10.948;2023-11-21T10:04:56;3.78;;;2.90;;
26540;SDS011;14206;50.202;10.948;2023-11-21T10:07:23;4.18;;;2.88;;
26540;SDS011;14206;50.202;10.948;2023-11-21T10:09:50;5.00;;;3.30;;
26540;SDS011;14206;50.202;10.948;2023-11-21T10:12:17;4.78;;;3.03;;
26540;SDS011;14206;50.202;10.948;2023-11-21T10:14:47;3.20;;;2.90;;
26540;SDS011;14206;50.202;10.948;2023-11-21T10:17:15;3.55;;;2.88;;
26540;SDS011;14206;50.202;10.948;2023-11-21T10:19:47;2.80;;;2.60;;
26540;SDS011;14206;50.202;10.948;2023-11-21T10:22:14;3.15;;;2.80;;
26540;SDS011;14206;50.202;10.948;2023-11-21T10:24:42;3.97;;;2.92;;
26540;SDS011;14206;50.202;10.948;2023-11-21T10:27:19;3.58;;;3.10;;
26540;SDS011;14206;50.202;10.948;2023-11-21T10:29:46;3.50;;;2.70;;
26540;SDS011;14206;50.202;10.948;2023-11-21T10:32:12;4.15;;;2.60;;
26540;SDS011;14206;50.202;10.948;2023-11-21T10:34:39;2.60;;;2.40;;
26540;SDS011;14206;50.202;10.948;2023-11-21T10:37:11;4.07;;;2.65;;
26540;SDS011;14206;50.202;10.948;2023-11-21T10:39:38;3.08;;;2.75;;
26540;SDS011;14206;50.202;10.948;2023-11-21T10:42:07;2.60;;;2.40;;
26540;SDS011;14206;50.202;10.948;2023-11-21T10:44:35;3.85;;;3.20;;
26540;SDS011;14206;50.202;10.948;2023-11-21T10:47:02;2.80;;;2.60;;
26540;SDS011;14206;50.202;10.948;2023-11-21T10:49:29;3.33;;;2.40;;
26540;SDS011;14206;50.202;10.948;2023-11-21T10:51:57;3.88;;;2.50;;
26540;SDS011;14206;50.202;10.948;2023-11-21T10:54:24;3.42;;;2.40;;
26540;SDS011;14206;50.202;10.948;2023-11-21T10:56:56;3.63;;;2.90;;
26540;SDS011;14206;50.202;10.948;2023-11-21T10:59:26;2.13;;;1.95;;
26540;SDS011;14206;50.202;10.948;2023-11-21T11:01:55;2.38;;;1.90;;
26540;SDS011;14206;50.202;10.948;2023-11-21T11:04:25;2.05;;;1.80;;
26540;SDS011;14206;50.202;10.948;2023-11-21T11:06:55;2.05;;;1.45;;
26540;SDS011;14206;50.202;10.948;2023-11-21T11:09:24;4.20;;;1.50;;
26540;SDS011;14206;50.202;10.948;2023-11-21T11:11:52;3.83;;;2.38;;
26540;SDS011;14206;50.202;10.948;2023-11-21T11:14:20;3.03;;;2.00;;
26540;SDS011;14206;50.202;10.948;2023-11-21T11:16:52;2.90;;;2.33;;
26540;SDS011;14206;50.202;10.948;2023-11-21T11:19:21;2.55;;;1.85;;
26540;SDS011;14206;50.202;10.948;2023-11-21T11:24:36;2.53;;;1.55;;
26540;SDS011;14206;50.202;10.948;2023-11-21T11:30:34;2.75;;;1.92;;
26540;SDS011;14206;50.202;10.948;2023-11-21T11:36:04;4.30;;;1.45;;
26540;SDS011;14206;50.202;10.948;2023-11-21T11:38:34;2.97;;;1.50;;
26540;SDS011;14206;50.202;10.948;2023-11-21T11:41:02;3.63;;;1.80;;
26540;SDS011;14206;50.202;10.948;2023-11-21T11:43:30;2.55;;;1.55;;
26540;SDS011;14206;50.202;10.948;2023-11-21T11:46:10;3.38;;;1.40;;
26540;SDS011;14206;50.202;10.948;2023-11-21T11:48:41;2.17;;;1.40;;
26540;SDS011;14206;50.202;10.948;2023-11-21T11:51:11;3.20;;;1.50;;
26540;SDS011;14206;50.202;10.948;2023-11-21T11:53:48;2.53;;;1.60;;
26540;SDS011;14206;50.202;10.948;2023-11-21T11:56:22;2.42;;;1.40;;
26540;SDS011;14206;50.202;10.948;2023-11-21T11:58:54;4.72;;;1.70;;
26540;SDS011;14206;50.202;10.948;2023-11-21T12:01:24;2.80;;;1.60;;
26540;SDS011;14206;50.202;10.948;2023-11-21T12:06:53;3.42;;;1.40;;
26540;SDS011;14206;50.202;10.948;2023-11-21T12:09:22;2.22;;;1.60;;
26540;SDS011;14206;50.202;10.948;2023-11-21T12:11:50;3.63;;;1.85;;
26540;SDS011;14206;50.202;10.948;2023-11-21T12:14:17;4.00;;;2.00;;
26540;SDS011;14206;50.202;10.948;2023-11-21T12:16:44;5.43;;;1.67;;
26540;SDS011;14206;50.202;10.948;2023-11-21T12:19:12;2.10;;;1.52;;
26540;SDS011;14206;50.202;10.948;2023-11-21T12:21:39;2.70;;;1.40;;
26540;SDS011;14206;50.202;10.948;2023-11-21T12:24:10;2.72;;;1.45;;
26540;SDS011;14206;50.202;10.948;2023-11-21T12:26:40;2.67;;;1.23;;
26540;SDS011;14206;50.202;10.948;2023-11-21T12:29:08;2.33;;;1.15;;
26540;SDS011;14206;50.202;10.948;2023-11-21T12:31:34;1.50;;;1.20;;
26540;SDS011;14206;50.202;10.948;2023-11-21T12:34:02;2.53;;;1.20;;
26540;SDS011;14206;50.202;10.948;2023-11-21T12:36:35;2.25;;;1.38;;
26540;SDS011;14206;50.202;10.948;2023-11-21T12:39:02;3.65;;;1.65;;
26540;SDS011;14206;50.202;10.948;2023-11-21T12:41:29;4.50;;;1.92;;
26540;SDS011;14206;50.202;10.948;2023-11-21T12:43:57;2.85;;;1.38;;
26540;SDS011;14206;50.202;10.948;2023-11-21T12:46:25;3.45;;;1.45;;
26540;SDS011;14206;50.202;10.948;2023-11-21T12:48:55;2.42;;;1.30;;
26540;SDS011;14206;50.202;10.948;2023-11-21T12:51:24;2.47;;;1.38;;
26540;SDS011;14206;50.202;10.948;2023-11-21T12:53:51;2.85;;;1.20;;
26540;SDS011;14206;50.202;10.948;2023-11-21T12:56:20;4.93;;;1.73;;
26540;SDS011;14206;50.202;10.948;2023-11-21T12:58:49;5.25;;;1.80;;
26540;SDS011;14206;50.202;10.948;2023-11-21T13:01:20;2.42;;;1.40;;
26540;SDS011;14206;50.202;10.948;2023-11-21T13:03:51;3.63;;;2.10;;
26540;SDS011;14206;50.202;10.948;2023-11-21T13:06:18;3.05;;;1.70;;
26540;SDS011;14206;50.202;10.948;2023-11-21T13:08:49;3.95;;;2.10;;
26540;SDS011;14206;50.202;10.948;2023-11-21T13:11:18;3.17;;;2.03;;
26540;SDS011;14206;50.202;10.948;2023-11-21T13:13:45;2.33;;;1.90;;
26540;SDS011;14206;50.202;10.948;2023-11-21T13:16:12;2.25;;;1.40;;
26540;SDS011;14206;50.202;10.948;2023-11-21T13:18:39;3.72;;;2.00;;
26540;SDS011;14206;50.202;10.948;2023-11-21T13:21:08;3.22;;;1.70;;
26540;SDS011;14206;50.202;10.948;2023-11-21T13:23:43;4.00;;;1.70;;
26540;SDS011;14206;50.202;10.948;2023-11-21T13:26:12;3.65;;;1.92;;
26540;SDS011;14206;50.202;10.948;2023-11-21T13:28:41;3.13;;;1.98;;
26540;SDS011;14206;50.202;10.948;2023-11-21T13:31:13;3.47;;;2.22;;
26540;SDS011;14206;50.202;10.948;2023-11-21T13:33:53;2.47;;;1.65;;
26540;SDS011;14206;50.202;10.948;2023-11-21T13:36:32;3.15;;;1.70;;
26540;SDS011;14206;50.202;10.948;2023-11-21T13:39:02;4.13;;;1.75;;
26540;SDS011;14206;50.202;10.948;2023-11-21T13:41:34;4.05;;;1.77;;
26540;SDS011;14206;50.202;10.948;2023-11-21T13:44:01;4.65;;;1.90;;
26540;SDS011;14206;50.202;10.948;2023-11-21T13:46:53;4.35;;;1.83;;
26540;SDS011;14206;50.202;10.948;2023-11-21T13:49:23;4.10;;;1.70;;
26540;SDS011;14206;50.202;10.948;2023-11-21T13:51:52;2.60;;;1.58;;
26540;SDS011;14206;50.202;10.948;2023-11-21T13:54:21;1.90;;;1.10;;
26540;SDS011;14206;50.202;10.948;2023-11-21T13:56:50;2.05;;;1.27;;
26540;SDS011;14206;50.202;10.948;2023-11-21T13:59:17;2.70;;;1.40;;
26540;SDS011;14206;50.202;10.948;2023-11-21T14:01:52;2.63;;;1.90;;
26540;SDS011;14206;50.202;10.948;2023-11-21T14:04:19;3.50;;;1.85;;
26540;SDS011;14206;50.202;10.948;2023-11-21T14:07:01;3.95;;;1.67;;
26540;SDS011;14206;50.202;10.948;2023-11-21T14:09:47;2.83;;;1.65;;
26540;SDS011;14206;50.202;10.948;2023-11-21T14:12:15;3.13;;;1.67;;
26540;SDS011;14206;50.202;10.948;2023-11-21T14:14:42;1.52;;;1.23;;
26540;SDS011;14206;50.202;10.948;2023-11-21T14:17:10;3.20;;;1.70;;
26540;SDS011;14206;50.202;10.948;2023-11-21T14:19:37;2.50;;;1.50;;
26540;SDS011;14206;50.202;10.948;2023-11-21T14:22:10;3.13;;;1.70;;
26540;SDS011;14206;50.202;10.948;2023-11-21T14:24:42;4.85;;;1.70;;
26540;SDS011;14206;50.202;10.948;2023-11-21T14:27:13;4.55;;;1.88;;
26540;SDS011;14206;50.202;10.948;2023-11-21T14:29:41;4.63;;;1.77;;
26540;SDS011;14206;50.202;10.948;2023-11-21T14:32:11;3.33;;;2.00;;
26540;SDS011;14206;50.202;10.948;2023-11-21T14:34:38;5.75;;;2.30;;
26540;SDS011;14206;50.202;10.948;2023-11-21T14:37:07;4.22;;;2.50;;
26540;SDS011;14206;50.202;10.948;2023-11-21T14:39:34;7.93;;;4.15;;
26540;SDS011;14206;50.202;10.948;2023-11-21T14:42:06;3.83;;;3.20;;
26540;SDS011;14206;50.202;10.948;2023-11-21T14:44:34;5.68;;;2.85;;
26540;SDS011;14206;50.202;10.948;2023-11-21T14:47:05;5.72;;;2.78;;
26540;SDS011;14206;50.202;10.948;2023-11-21T14:49:39;3.97;;;2.40;;
26540;SDS011;14206;50.202;10.948;2023-11-21T14:52:19;2.78;;;2.28;;